createdAt,value
2018-01-24T00:00:05.066Z,8.9
2018-01-24T00:15:05.136Z,8.8
2018-01-24T00:30:04.935Z,8.9
2018-01-24T00:45:04.820Z,8.8
2018-01-24T01:00:04.501Z,8.9
2018-01-24T01:15:04.571Z,8.8
2018-01-24T01:30:05.016Z,8.8
2018-01-24T01:45:04.918Z,8.9
2018-01-24T02:00:04.581Z,9
2018-01-24T02:15:05.024Z,8.8
2018-01-24T02:30:04.757Z,8.6
2018-01-24T02:45:04.659Z,8.4
2018-01-24T03:00:04.557Z,8.2
2018-01-24T03:15:05.206Z,8
2018-01-24T03:30:05.127Z,7.9
2018-01-24T03:45:04.617Z,7.6
2018-01-24T04:00:04.617Z,7.5
2018-01-24T04:15:04.796Z,7.4
2018-01-24T04:30:05.195Z,7.3
2018-01-24T04:45:05.323Z,7.3
2018-01-24T05:00:04.484Z,7.2
2018-01-24T05:15:05.085Z,7.2
2018-01-24T05:30:05.082Z,7
2018-01-24T05:45:06.439Z,6.9
2018-01-24T06:00:05.401Z,6.9
2018-01-24T06:15:04.273Z,6.9
2018-01-24T06:30:04.380Z,6.8
2018-01-24T06:45:04.294Z,6.8
2018-01-24T07:00:05.157Z,6.7
2018-01-24T07:15:05.088Z,6.8
2018-01-24T07:30:07.826Z,6.6
2018-01-24T07:45:05.798Z,6.8
2018-01-24T08:00:05.717Z,6.8
2018-01-24T08:15:06.214Z,7.6
2018-01-24T08:30:04.372Z,9
2018-01-24T08:45:04.252Z,10.6
2018-01-24T09:00:04.699Z,11
2018-01-24T09:15:05.118Z,12.5
2018-01-24T09:30:04.319Z,14
2018-01-24T09:45:04.822Z,13.2
2018-01-24T10:00:04.231Z,12
2018-01-24T10:15:04.698Z,11.7
2018-01-24T10:30:04.265Z,11.7
2018-01-24T10:45:04.660Z,11.6
2018-01-24T11:00:04.535Z,11.6
2018-01-24T11:15:04.989Z,11.8
2018-01-24T11:30:04.580Z,12
2018-01-24T11:45:08.206Z,12.1
2018-01-24T12:00:04.736Z,12.2
2018-01-24T12:15:04.600Z,12.4
2018-01-24T12:30:04.771Z,12.6
2018-01-24T12:45:04.224Z,12.5
2018-01-24T13:00:04.633Z,12.6
2018-01-24T13:15:05.040Z,12.8
2018-01-24T13:30:04.625Z,12.8
2018-01-24T13:45:04.986Z,12.8
2018-01-24T14:00:05.458Z,12.8
2018-01-24T14:15:04.367Z,12.9
2018-01-24T14:30:05.563Z,12.9
2018-01-24T14:45:04.436Z,12.8
2018-01-24T15:00:04.920Z,12.8
2018-01-24T15:15:04.902Z,12.7
2018-01-24T15:30:05.017Z,12.7
2018-01-24T15:45:04.331Z,12.4
2018-01-24T16:00:05.319Z,12.2
2018-01-24T16:15:04.710Z,11.9
2018-01-24T16:30:04.250Z,11.6
2018-01-24T16:45:05.325Z,11.3
2018-01-24T17:00:04.710Z,11.1
2018-01-24T17:15:05.148Z,10.8
2018-01-24T17:30:05.382Z,10.5
2018-01-24T17:45:07.878Z,10.3
2018-01-24T18:00:05.232Z,10.2
2018-01-24T18:15:04.381Z,10
2018-01-24T18:30:05.211Z,9.8
2018-01-24T18:45:05.304Z,9.8
2018-01-24T19:00:05.729Z,9.6
2018-01-24T19:15:04.610Z,9.3
2018-01-24T19:30:04.982Z,9.3
2018-01-24T19:45:05.062Z,9.2
2018-01-24T20:00:05.093Z,9.1
2018-01-24T20:15:05.945Z,8.9
2018-01-24T20:30:05.441Z,8.9
2018-01-24T20:45:04.846Z,8.7
2018-01-24T21:00:04.609Z,8.5
2018-01-24T21:15:05.702Z,8.4
2018-01-24T21:30:07.545Z,8.3
2018-01-24T21:45:19.721Z,8.2
2018-01-24T22:00:06.253Z,8.3
2018-01-24T22:15:08.205Z,8.4
2018-01-24T22:30:05.524Z,8.5
2018-01-24T22:45:05.606Z,9
2018-01-24T23:00:04.598Z,9.6
2018-01-24T23:15:06.214Z,9.8
2018-01-24T23:30:06.307Z,9.6
2018-01-24T23:45:07.357Z,9.4
